Time;durP1;ratioP1;P1;durP2;ratioP2;P2;SDS_P1;SDS_P2;PMS_P1;PMS_P2;Temp;Humidity;BMP_temperature;BMP_pressure;BME280_temperature;BME280_humidity;BME280_pressure;Samples;Min_cycle;Max_cycle;Signal;HPM_P1;HPM_P2
2023/05/29 00:01:01;;;;;;;7.65;5.95;;;;;;;;;;6275887;22;20000;-86
2023/05/29 00:03:28;;;;;;;16.67;6.47;;;;;;;;;;6249156;22;20085;-85
2023/05/29 00:05:54;;;;;;;12.45;6.53;;;;;;;;;;6276385;22;19996;-85
2023/05/29 00:08:20;;;;;;;8.75;5.45;;;;;;;;;;6276386;22;20049;-84
2023/05/29 00:10:46;;;;;;;9.90;5.95;;;;;;;;;;6276280;22;19996;-85
2023/05/29 00:13:13;;;;;;;9.55;6.28;;;;;;;;;;6248907;22;20094;-86
2023/05/29 00:15:39;;;;;;;10.07;5.93;;;;;;;;;;6276569;22;20010;-86
2023/05/29 00:18:05;;;;;;;8.02;5.65;;;;;;;;;;6276255;22;20012;-85
2023/05/29 00:20:33;;;;;;;10.02;5.95;;;;;;;;;;6275715;22;19995;-85
2023/05/29 00:23:01;;;;;;;11.55;6.57;;;;;;;;;;6276113;22;20061;-83
2023/05/29 00:25:27;;;;;;;10.18;5.88;;;;;;;;;;6249063;22;20000;-85
2023/05/29 00:27:54;;;;;;;9.80;6.32;;;;;;;;;;6275792;22;20010;-85
2023/05/29 00:30:20;;;;;;;15.57;6.20;;;;;;;;;;6275727;22;20067;-85
2023/05/29 00:32:46;;;;;;;11.13;6.70;;;;;;;;;;6276140;22;20469;-85
2023/05/29 00:35:12;;;;;;;14.07;6.45;;;;;;;;;;6275765;22;20052;-86
2023/05/29 00:37:38;;;;;;;11.15;6.47;;;;;;;;;;6276412;22;20415;-84
2023/05/29 00:40:05;;;;;;;12.35;6.28;;;;;;;;;;6276048;22;20003;-86
2023/05/29 00:42:31;;;;;;;12.43;6.70;;;;;;;;;;6276039;22;20053;-86
2023/05/29 00:44:57;;;;;;;9.38;6.43;;;;;;;;;;6276045;22;20034;-84
2023/05/29 00:47:23;;;;;;;13.55;5.70;;;;;;;;;;6275721;22;20044;-84
2023/05/29 00:49:51;;;;;;;11.77;6.60;;;;;;;;;;6276112;22;20082;-82
2023/05/29 00:52:17;;;;;;;9.77;5.95;;;;;;;;;;6275786;22;20410;-82
2023/05/29 00:54:45;;;;;;;9.48;6.45;;;;;;;;;;6275641;22;20425;-83
2023/05/29 00:57:12;;;;;;;12.10;6.40;;;;;;;;;;6275648;22;20082;-82
2023/05/29 00:59:38;;;;;;;10.68;6.80;;;;;;;;;;6272079;22;20012;-81
2023/05/29 01:02:05;;;;;;;9.27;6.38;;;;;;;;;;6272786;22;20008;-82
2023/05/29 01:04:34;;;;;;;11.30;6.20;;;;;;;;;;6273670;22;20476;-81
2023/05/29 01:07:02;;;;;;;9.32;5.78;;;;;;;;;;6248022;22;20053;-83
2023/05/29 01:09:29;;;;;;;12.20;5.85;;;;;;;;;;6275625;22;20083;-80
2023/05/29 01:12:14;;;;;;;9.45;5.90;;;;;;;;;;6276276;22;20330;-80
2023/05/29 01:14:52;;;;;;;8.32;5.65;;;;;;;;;;6277718;22;20007;-82
2023/05/29 01:17:29;;;;;;;11.98;6.22;;;;;;;;;;6277466;22;20008;-81
2023/05/29 01:20:14;;;;;;;10.52;5.55;;;;;;;;;;6278182;22;20007;-82
2023/05/29 01:22:50;;;;;;;12.60;5.20;;;;;;;;;;6277721;22;20000;-82
2023/05/29 01:25:45;;;;;;;7.35;5.18;;;;;;;;;;6277872;22;20049;-81
2023/05/29 01:28:12;;;;;;;13.32;5.82;;;;;;;;;;6257361;22;20012;-82
2023/05/29 01:30:39;;;;;;;11.27;5.95;;;;;;;;;;6250244;22;20010;-83
2023/05/29 01:33:06;;;;;;;13.77;6.47;;;;;;;;;;6277423;22;20414;-84
2023/05/29 01:35:32;;;;;;;12.65;6.50;;;;;;;;;;6277346;22;20074;-84
2023/05/29 01:37:58;;;;;;;10.38;6.00;;;;;;;;;;6277100;22;20483;-84
2023/05/29 01:40:24;;;;;;;8.80;5.30;;;;;;;;;;6276918;22;20036;-83
2023/05/29 01:42:50;;;;;;;10.18;5.25;;;;;;;;;;6250090;22;20334;-84
2023/05/29 01:45:17;;;;;;;11.20;5.57;;;;;;;;;;6277489;22;20478;-84
2023/05/29 01:47:44;;;;;;;8.13;4.60;;;;;;;;;;6250461;22;20062;-84
2023/05/29 01:50:11;;;;;;;11.15;5.15;;;;;;;;;;6278370;22;20000;-84
2023/05/29 01:52:37;;;;;;;10.45;5.47;;;;;;;;;;6277719;22;20015;-84
2023/05/29 01:55:04;;;;;;;9.80;5.32;;;;;;;;;;6277677;22;20070;-82
2023/05/29 01:57:30;;;;;;;8.07;5.30;;;;;;;;;;6277660;22;19999;-87
2023/05/29 01:59:56;;;;;;;12.30;5.55;;;;;;;;;;6277378;22;20003;-83
2023/05/29 02:02:23;;;;;;;22.15;5.80;;;;;;;;;;6277475;22;20006;-83
2023/05/29 02:04:49;;;;;;;10.38;5.63;;;;;;;;;;6277036;22;20003;-84
2023/05/29 02:07:15;;;;;;;13.90;5.80;;;;;;;;;;6276927;22;20004;-83
2023/05/29 02:09:41;;;;;;;8.90;5.30;;;;;;;;;;6277459;22;19999;-84
2023/05/29 02:12:07;;;;;;;12.95;6.07;;;;;;;;;;6277350;22;20004;-85
2023/05/29 02:14:34;;;;;;;10.23;5.88;;;;;;;;;;6277902;22;20075;-84
2023/05/29 02:17:01;;;;;;;9.00;5.47;;;;;;;;;;6277416;22;20004;-84
2023/05/29 02:19:27;;;;;;;10.60;5.80;;;;;;;;;;6250753;22;20039;-83
2023/05/29 02:21:54;;;;;;;13.95;6.22;;;;;;;;;;6285410;22;19984;-83
2023/05/29 02:24:20;;;;;;;11.00;5.65;;;;;;;;;;6303156;22;20008;-82
2023/05/29 02:26:50;;;;;;;11.30;6.22;;;;;;;;;;6265189;22;20006;-81
2023/05/29 02:29:16;;;;;;;15.90;6.43;;;;;;;;;;6249647;22;20086;-83
2023/05/29 02:31:42;;;;;;;14.10;6.22;;;;;;;;;;6277292;22;20488;-82
2023/05/29 02:34:08;;;;;;;17.70;6.13;;;;;;;;;;6276953;22;19996;-82
2023/05/29 02:36:37;;;;;;;15.57;6.60;;;;;;;;;;6277071;22;20004;-82
2023/05/29 02:39:03;;;;;;;11.13;5.90;;;;;;;;;;6276878;22;20014;-82
2023/05/29 02:41:29;;;;;;;13.82;6.43;;;;;;;;;;6276713;22;20011;-83
2023/05/29 02:43:55;;;;;;;10.40;6.40;;;;;;;;;;6276317;22;20003;-82
2023/05/29 02:46:21;;;;;;;11.90;6.78;;;;;;;;;;6275083;22;20016;-82
2023/05/29 02:48:48;;;;;;;11.25;6.32;;;;;;;;;;6273258;22;20004;-81
2023/05/29 02:51:14;;;;;;;10.25;6.53;;;;;;;;;;6275141;22;20000;-82
2023/05/29 02:53:40;;;;;;;10.55;6.68;;;;;;;;;;6274466;22;20078;-84
2023/05/29 02:56:12;;;;;;;14.52;7.10;;;;;;;;;;6275057;22;19995;-82
2023/05/29 02:58:38;;;;;;;11.88;6.65;;;;;;;;;;6248380;22;20426;-83
2023/05/29 03:01:04;;;;;;;13.02;6.40;;;;;;;;;;6276031;22;20000;-83
2023/05/29 03:03:30;;;;;;;11.52;6.07;;;;;;;;;;6275929;22;20027;-81
2023/05/29 03:05:56;;;;;;;8.82;5.70;;;;;;;;;;6276400;22;20075;-82
2023/05/29 03:08:23;;;;;;;12.05;6.03;;;;;;;;;;6276575;22;20026;-86
2023/05/29 03:10:51;;;;;;;12.38;5.68;;;;;;;;;;6276002;22;20483;-84
2023/05/29 03:13:18;;;;;;;27.65;7.60;;;;;;;;;;6249506;22;20041;-84
2023/05/29 03:15:44;;;;;;;21.52;7.45;;;;;;;;;;6276589;22;20079;-85
2023/05/29 03:18:10;;;;;;;17.50;6.28;;;;;;;;;;6275460;22;20008;-84
2023/05/29 03:20:37;;;;;;;24.33;6.72;;;;;;;;;;6276365;22;20074;-87
2023/05/29 03:23:03;;;;;;;24.92;7.82;;;;;;;;;;6276817;22;20010;-86
2023/05/29 03:25:29;;;;;;;13.38;6.45;;;;;;;;;;6276465;22;20098;-86
2023/05/29 03:27:55;;;;;;;12.98;6.40;;;;;;;;;;6276887;22;19999;-87
2023/05/29 03:30:21;;;;;;;13.10;5.82;;;;;;;;;;6276879;22;19996;-85
2023/05/29 03:32:48;;;;;;;12.98;6.50;;;;;;;;;;6249360;22;20003;-84
2023/05/29 03:35:14;;;;;;;10.13;6.20;;;;;;;;;;6276740;22;20003;-86
2023/05/29 03:37:40;;;;;;;10.65;5.90;;;;;;;;;;6249751;22;20457;-81
2023/05/29 03:40:06;;;;;;;9.65;5.85;;;;;;;;;;6276462;22;20000;-85
2023/05/29 03:42:32;;;;;;;10.95;6.65;;;;;;;;;;6275183;22;20007;-85
2023/05/29 03:44:59;;;;;;;10.25;6.18;;;;;;;;;;6276591;22;20533;-86
2023/05/29 03:47:25;;;;;;;10.93;6.30;;;;;;;;;;6246068;23;20083;-86
2023/05/29 03:49:51;;;;;;;11.48;5.78;;;;;;;;;;6219258;23;20426;-85
2023/05/29 03:52:17;;;;;;;7.85;5.93;;;;;;;;;;6245965;23;20011;-87
2023/05/29 03:54:44;;;;;;;9.60;5.35;;;;;;;;;;6218878;23;20419;-84
2023/05/29 03:57:10;;;;;;;13.02;5.55;;;;;;;;;;6218529;23;20008;-84
2023/05/29 03:59:37;;;;;;;9.68;5.80;;;;;;;;;;6245555;23;20081;-83
2023/05/29 04:02:03;;;;;;;8.95;4.82;;;;;;;;;;6218638;23;20000;-80
2023/05/29 04:04:30;;;;;;;9.38;5.53;;;;;;;;;;6245515;23;20067;-81
2023/05/29 04:06:56;;;;;;;8.45;5.47;;;;;;;;;;6245071;23;19996;-80
2023/05/29 04:09:22;;;;;;;10.18;5.18;;;;;;;;;;6244932;23;20019;-85
2023/05/29 04:11:48;;;;;;;8.60;5.35;;;;;;;;;;6245706;23;20000;-84
2023/05/29 04:14:15;;;;;;;8.93;5.22;;;;;;;;;;6245637;23;20007;-84
2023/05/29 04:16:41;;;;;;;8.07;5.30;;;;;;;;;;6245342;23;19996;-84
2023/05/29 04:19:07;;;;;;;7.93;4.78;;;;;;;;;;6245349;23;20016;-84
2023/05/29 04:21:34;;;;;;;8.13;5.32;;;;;;;;;;6245394;23;19997;-84
2023/05/29 04:24:00;;;;;;;14.00;5.65;;;;;;;;;;6245524;23;20030;-84
2023/05/29 04:26:26;;;;;;;11.13;5.50;;;;;;;;;;6245533;23;20481;-84
2023/05/29 04:28:58;;;;;;;8.73;4.97;;;;;;;;;;6218182;23;20008;-84
2023/05/29 04:31:27;;;;;;;11.07;5.13;;;;;;;;;;6245604;23;20007;-82
2023/05/29 04:33:54;;;;;;;13.68;5.60;;;;;;;;;;6245664;23;20008;-83
2023/05/29 04:36:27;;;;;;;12.90;5.72;;;;;;;;;;6245286;23;20032;-83
2023/05/29 04:38:54;;;;;;;9.82;5.20;;;;;;;;;;6218403;23;20074;-83
2023/05/29 04:41:23;;;;;;;11.95;5.70;;;;;;;;;;6244790;23;20024;-83
2023/05/29 04:43:51;;;;;;;11.20;5.60;;;;;;;;;;6245055;23;20456;-83
2023/05/29 04:46:17;;;;;;;11.80;5.65;;;;;;;;;;6233885;22;20054;-84
2023/05/29 04:48:43;;;;;;;9.52;5.63;;;;;;;;;;6277487;22;20011;-84
2023/05/29 04:51:10;;;;;;;9.02;5.63;;;;;;;;;;6251746;22;20004;-83
2023/05/29 04:53:39;;;;;;;19.58;6.38;;;;;;;;;;6258503;22;20003;-83
2023/05/29 04:56:05;;;;;;;15.73;6.28;;;;;;;;;;6263459;22;20008;-83
2023/05/29 04:58:31;;;;;;;24.77;6.47;;;;;;;;;;6289300;22;20059;-84
2023/05/29 05:01:00;;;;;;;16.55;6.10;;;;;;;;;;6288115;22;20010;-83
2023/05/29 05:03:26;;;;;;;16.17;6.10;;;;;;;;;;6284689;22;20003;-78
2023/05/29 05:05:52;;;;;;;15.73;5.88;;;;;;;;;;6277919;22;20018;-79
2023/05/29 05:08:18;;;;;;;21.30;6.82;;;;;;;;;;6277815;22;20049;-78
2023/05/29 05:10:44;;;;;;;18.70;6.50;;;;;;;;;;6277762;22;20047;-78
2023/05/29 05:13:12;;;;;;;21.88;6.30;;;;;;;;;;6277927;22;20000;-78
2023/05/29 05:15:38;;;;;;;21.38;6.65;;;;;;;;;;6277900;22;20004;-78
2023/05/29 05:18:04;;;;;;;19.52;6.07;;;;;;;;;;6277588;22;20008;-78
2023/05/29 05:20:30;;;;;;;11.65;6.25;;;;;;;;;;6277669;22;20075;-78
2023/05/29 05:22:56;;;;;;;14.30;6.72;;;;;;;;;;6277821;22;20086;-78
2023/05/29 05:25:23;;;;;;;24.02;6.25;;;;;;;;;;6278224;22;19996;-78
2023/05/29 05:27:49;;;;;;;16.98;5.88;;;;;;;;;;6278067;22;20027;-77
2023/05/29 05:30:15;;;;;;;9.80;5.78;;;;;;;;;;6277860;22;20418;-77
2023/05/29 05:32:41;;;;;;;12.40;5.20;;;;;;;;;;6278050;22;20007;-77
2023/05/29 05:35:10;;;;;;;11.73;5.45;;;;;;;;;;6276011;22;20508;-77
2023/05/29 05:37:36;;;;;;;11.55;6.00;;;;;;;;;;6250794;22;20004;-77
2023/05/29 05:40:03;;;;;;;14.77;6.18;;;;;;;;;;6277865;22;20031;-77
2023/05/29 05:42:29;;;;;;;12.48;5.90;;;;;;;;;;6278097;22;20071;-77
2023/05/29 05:44:55;;;;;;;9.50;5.85;;;;;;;;;;6277715;22;20004;-78
2023/05/29 05:47:21;;;;;;;10.20;6.40;;;;;;;;;;6277372;22;20011;-78
2023/05/29 05:49:49;;;;;;;14.10;6.15;;;;;;;;;;6277871;22;20423;-78
2023/05/29 05:52:16;;;;;;;14.80;6.45;;;;;;;;;;6277983;22;20099;-78
2023/05/29 05:54:42;;;;;;;9.02;5.55;;;;;;;;;;6278087;22;19996;-77
2023/05/29 05:57:08;;;;;;;11.93;5.43;;;;;;;;;;6277882;22;20326;-78
2023/05/29 05:59:36;;;;;;;13.77;5.45;;;;;;;;;;6277658;22;20008;-76
2023/05/29 06:02:03;;;;;;;10.60;5.00;;;;;;;;;;6278119;22;20513;-76
2023/05/29 06:04:29;;;;;;;15.38;5.53;;;;;;;;;;6278030;22;20445;-78
2023/05/29 06:06:55;;;;;;;10.43;5.25;;;;;;;;;;6278539;22;20016;-78
2023/05/29 06:09:22;;;;;;;7.25;5.20;;;;;;;;;;6287771;22;20011;-78
2023/05/29 06:11:48;;;;;;;11.93;6.00;;;;;;;;;;6287494;22;19996;-77
2023/05/29 06:14:15;;;;;;;12.02;5.45;;;;;;;;;;6289394;22;20007;-78
2023/05/29 06:16:41;;;;;;;10.00;5.38;;;;;;;;;;6280502;22;20377;-78
2023/05/29 06:19:08;;;;;;;10.00;5.70;;;;;;;;;;6277321;22;20034;-78
2023/05/29 06:21:34;;;;;;;16.50;6.10;;;;;;;;;;6277356;22;20054;-78
2023/05/29 06:24:00;;;;;;;10.38;5.43;;;;;;;;;;6276967;22;20103;-78
2023/05/29 06:26:26;;;;;;;8.52;5.30;;;;;;;;;;6275144;22;20426;-78
2023/05/29 06:28:53;;;;;;;13.23;5.72;;;;;;;;;;6277076;22;20469;-77
2023/05/29 06:31:19;;;;;;;11.05;4.90;;;;;;;;;;6249754;22;20426;-77
2023/05/29 06:33:46;;;;;;;13.38;5.70;;;;;;;;;;6277141;22;20007;-77
2023/05/29 06:36:12;;;;;;;12.90;5.93;;;;;;;;;;6277078;22;20003;-79
2023/05/29 06:38:38;;;;;;;13.10;5.68;;;;;;;;;;6277180;22;20039;-78
2023/05/29 06:41:04;;;;;;;12.48;5.38;;;;;;;;;;6277251;22;20027;-77
2023/05/29 06:43:30;;;;;;;9.27;5.45;;;;;;;;;;6277038;22;20422;-77
2023/05/29 06:45:56;;;;;;;13.98;5.15;;;;;;;;;;6276648;22;20007;-76
2023/05/29 06:48:22;;;;;;;11.48;5.40;;;;;;;;;;6276781;22;20007;-77
2023/05/29 06:50:48;;;;;;;10.88;4.97;;;;;;;;;;6276932;22;20285;-77
2023/05/29 06:53:14;;;;;;;10.05;5.22;;;;;;;;;;6277189;22;20000;-77
2023/05/29 06:55:41;;;;;;;11.93;5.65;;;;;;;;;;6276915;22;20049;-77
2023/05/29 06:58:07;;;;;;;7.75;5.13;;;;;;;;;;6276679;22;20008;-77
2023/05/29 07:00:33;;;;;;;11.13;5.70;;;;;;;;;;6276960;22;19999;-76
2023/05/29 07:02:59;;;;;;;11.98;5.00;;;;;;;;;;6276902;22;20015;-77
2023/05/29 07:05:27;;;;;;;10.80;5.50;;;;;;;;;;6277063;22;20003;-77
2023/05/29 07:07:53;;;;;;;7.35;4.82;;;;;;;;;;6277075;22;20330;-76
2023/05/29 07:10:19;;;;;;;10.40;5.70;;;;;;;;;;6276587;22;20011;-77
2023/05/29 07:12:46;;;;;;;12.13;5.38;;;;;;;;;;6276701;22;20080;-77
2023/05/29 07:15:12;;;;;;;10.43;5.38;;;;;;;;;;6277016;22;20004;-76
2023/05/29 07:17:38;;;;;;;10.57;5.40;;;;;;;;;;6276994;22;20385;-77
2023/05/29 07:20:07;;;;;;;11.35;5.72;;;;;;;;;;6276851;22;20547;-77
2023/05/29 07:22:34;;;;;;;12.63;5.57;;;;;;;;;;6249841;22;20349;-76
2023/05/29 07:25:00;;;;;;;14.30;5.28;;;;;;;;;;6276922;22;20322;-77
2023/05/29 07:27:26;;;;;;;9.85;5.50;;;;;;;;;;6276633;22;20004;-77
2023/05/29 07:29:52;;;;;;;11.00;5.55;;;;;;;;;;6276889;22;20007;-77
2023/05/29 07:32:18;;;;;;;13.13;5.70;;;;;;;;;;6249626;22;20012;-77
2023/05/29 07:34:45;;;;;;;7.78;5.05;;;;;;;;;;6276547;22;20000;-78
2023/05/29 07:37:12;;;;;;;14.25;5.93;;;;;;;;;;6276486;22;20440;-78
2023/05/29 07:39:38;;;;;;;11.13;4.85;;;;;;;;;;6276470;22;20000;-78
2023/05/29 07:42:06;;;;;;;9.13;5.28;;;;;;;;;;6276480;22;19999;-78
2023/05/29 07:44:32;;;;;;;14.38;5.32;;;;;;;;;;6276679;22;19995;-77
2023/05/29 07:46:58;;;;;;;15.23;5.35;;;;;;;;;;6244520;23;20023;-77
2023/05/29 07:49:24;;;;;;;15.18;5.53;;;;;;;;;;6246151;23;19996;-77
2023/05/29 07:51:50;;;;;;;9.07;4.95;;;;;;;;;;6245881;23;20008;-77
2023/05/29 07:54:20;;;;;;;10.38;5.25;;;;;;;;;;6219095;23;20000;-78
2023/05/29 07:56:47;;;;;;;12.07;5.32;;;;;;;;;;6246168;23;20026;-77
2023/05/29 07:59:13;;;;;;;8.98;4.57;;;;;;;;;;6245689;23;20000;-78
2023/05/29 08:01:39;;;;;;;8.10;5.00;;;;;;;;;;6246140;23;20020;-77
2023/05/29 08:04:05;;;;;;;9.23;5.03;;;;;;;;;;6246195;23;20075;-78
2023/05/29 08:06:32;;;;;;;9.38;5.75;;;;;;;;;;6246219;23;20007;-78
2023/05/29 08:08:58;;;;;;;9.75;5.55;;;;;;;;;;6245921;23;20425;-78
2023/05/29 08:11:25;;;;;;;13.75;5.35;;;;;;;;;;6246187;23;20075;-78
2023/05/29 08:13:51;;;;;;;11.77;5.22;;;;;;;;;;6245947;23;20003;-77
2023/05/29 08:16:17;;;;;;;8.88;5.07;;;;;;;;;;6245917;23;20418;-77
2023/05/29 08:18:44;;;;;;;9.27;5.28;;;;;;;;;;6245999;23;20008;-78
2023/05/29 08:21:10;;;;;;;12.82;5.03;;;;;;;;;;6245733;23;20419;-77
2023/05/29 08:23:36;;;;;;;13.23;5.03;;;;;;;;;;6246107;23;20011;-77
2023/05/29 08:26:03;;;;;;;13.40;5.22;;;;;;;;;;6245442;23;20410;-77
2023/05/29 08:28:29;;;;;;;12.70;5.05;;;;;;;;;;6245628;23;20046;-77
2023/05/29 08:30:55;;;;;;;8.65;4.70;;;;;;;;;;6246023;23;20010;-77
2023/05/29 08:33:21;;;;;;;12.07;5.55;;;;;;;;;;6245800;23;20366;-77
2023/05/29 08:35:48;;;;;;;11.05;5.45;;;;;;;;;;6245566;23;20004;-78
2023/05/29 08:38:14;;;;;;;11.05;4.75;;;;;;;;;;6245632;23;20017;-77
2023/05/29 08:40:40;;;;;;;10.55;5.07;;;;;;;;;;6245898;23;20000;-78
2023/05/29 08:43:06;;;;;;;14.77;5.05;;;;;;;;;;6245744;23;20426;-78
2023/05/29 08:45:35;;;;;;;16.65;5.05;;;;;;;;;;6245367;22;20534;-78
2023/05/29 08:48:02;;;;;;;15.88;5.15;;;;;;;;;;6245349;23;20010;-78
2023/05/29 08:50:28;;;;;;;13.48;5.75;;;;;;;;;;6245582;23;20000;-78
2023/05/29 08:52:54;;;;;;;14.05;5.25;;;;;;;;;;6245566;23;20007;-78
2023/05/29 08:55:20;;;;;;;8.18;4.57;;;;;;;;;;6247555;23;20461;-78
2023/05/29 08:57:47;;;;;;;13.00;5.10;;;;;;;;;;6245034;23;20012;-78
2023/05/29 09:00:13;;;;;;;11.27;4.82;;;;;;;;;;6218519;23;19996;-77
2023/05/29 09:02:43;;;;;;;10.80;5.20;;;;;;;;;;6245838;23;20010;-77
2023/05/29 09:05:10;;;;;;;7.75;5.20;;;;;;;;;;6245355;23;20003;-78
2023/05/29 09:07:38;;;;;;;8.90;5.00;;;;;;;;;;6245957;23;20011;-77
2023/05/29 09:10:06;;;;;;;6.60;4.45;;;;;;;;;;6218446;23;20374;-77
2023/05/29 09:12:32;;;;;;;9.95;4.68;;;;;;;;;;6245739;23;20058;-77
2023/05/29 09:14:59;;;;;;;8.95;5.45;;;;;;;;;;6245644;23;19997;-78
2023/05/29 09:17:25;;;;;;;7.00;4.55;;;;;;;;;;6245414;23;20008;-78
2023/05/29 09:19:51;;;;;;;10.77;4.63;;;;;;;;;;6245316;23;19997;-77
2023/05/29 09:22:17;;;;;;;13.98;4.75;;;;;;;;;;6245078;23;20399;-77
2023/05/29 09:24:46;;;;;;;12.18;4.85;;;;;;;;;;6245574;23;20003;-78
2023/05/29 09:27:13;;;;;;;8.57;4.97;;;;;;;;;;6245536;23;20005;-77
2023/05/29 09:29:40;;;;;;;9.57;4.63;;;;;;;;;;6218542;23;20092;-77
2023/05/29 09:32:15;;;;;;;7.32;5.00;;;;;;;;;;6245427;23;20466;-78
2023/05/29 09:34:42;;;;;;;8.85;4.70;;;;;;;;;;6246341;23;20083;-77
2023/05/29 09:37:09;;;;;;;9.52;5.20;;;;;;;;;;6246864;23;20378;-78
2023/05/29 09:39:48;;;;;;;12.73;5.10;;;;;;;;;;6247215;23;20010;-77
2023/05/29 09:42:16;;;;;;;13.95;4.90;;;;;;;;;;6247232;23;19997;-76
2023/05/29 09:44:43;;;;;;;9.18;4.80;;;;;;;;;;6220246;23;20337;-77
2023/05/29 09:47:10;;;;;;;12.35;4.60;;;;;;;;;;6247026;22;20119;-77
2023/05/29 09:49:41;;;;;;;11.73;4.45;;;;;;;;;;6247142;23;20043;-76
2023/05/29 09:52:08;;;;;;;11.27;5.17;;;;;;;;;;6247383;23;20004;-80
2023/05/29 09:54:36;;;;;;;11.43;5.53;;;;;;;;;;6247036;23;20007;-79
2023/05/29 09:57:04;;;;;;;8.73;4.90;;;;;;;;;;6246799;23;20074;-78
2023/05/29 09:59:32;;;;;;;9.18;5.00;;;;;;;;;;6246526;23;20007;-78
2023/05/29 10:02:02;;;;;;;8.43;4.45;;;;;;;;;;6246507;23;20001;-78
2023/05/29 10:04:28;;;;;;;7.00;4.57;;;;;;;;;;6246307;23;20008;-80
2023/05/29 10:06:56;;;;;;;11.43;5.25;;;;;;;;;;6246465;23;20000;-80
2023/05/29 10:09:25;;;;;;;8.88;4.30;;;;;;;;;;6246710;23;20078;-79
2023/05/29 10:11:53;;;;;;;12.73;5.00;;;;;;;;;;6246830;23;20332;-80
2023/05/29 10:14:20;;;;;;;15.90;5.00;;;;;;;;;;6246919;23;20075;-78
2023/05/29 10:16:47;;;;;;;8.30;4.60;;;;;;;;;;6246995;23;20988;-79
2023/05/29 10:19:16;;;;;;;15.55;5.05;;;;;;;;;;6247001;23;20151;-80
2023/05/29 10:21:44;;;;;;;12.10;4.63;;;;;;;;;;6246901;23;20423;-80
2023/05/29 10:24:11;;;;;;;11.23;4.90;;;;;;;;;;6246664;23;20008;-82
2023/05/29 10:26:39;;;;;;;8.85;5.07;;;;;;;;;;6246357;23;19996;-81
2023/05/29 10:29:24;;;;;;;13.23;5.40;;;;;;;;;;6246472;23;20537;-80
2023/05/29 10:31:59;;;;;;;11.30;4.97;;;;;;;;;;6246554;23;20071;-80
2023/05/29 10:34:38;;;;;;;9.00;4.70;;;;;;;;;;6246829;23;20431;-80
2023/05/29 10:37:16;;;;;;;11.68;4.40;;;;;;;;;;6246588;23;20415;-80
2023/05/29 10:39:42;;;;;;;7.20;4.45;;;;;;;;;;6246462;23;20334;-79
2023/05/29 10:42:27;;;;;;;7.18;4.40;;;;;;;;;;6246542;23;20050;-80
2023/05/29 10:44:53;;;;;;;7.68;5.00;;;;;;;;;;6245847;22;20000;-79
2023/05/29 10:47:29;;;;;;;11.38;4.80;;;;;;;;;;6246136;23;20380;-80
2023/05/29 10:50:00;;;;;;;11.70;4.85;;;;;;;;;;6246173;23;20004;-79
2023/05/29 10:52:26;;;;;;;8.02;4.55;;;;;;;;;;6246320;23;20030;-79
2023/05/29 10:54:54;;;;;;;10.27;5.03;;;;;;;;;;6218977;23;20004;-80
2023/05/29 10:57:23;;;;;;;7.80;4.80;;;;;;;;;;6246412;23;20433;-80
2023/05/29 10:59:58;;;;;;;8.25;5.22;;;;;;;;;;6245481;23;20007;-79
2023/05/29 11:02:24;;;;;;;7.47;4.55;;;;;;;;;;6245561;23;19996;-79
2023/05/29 11:05:13;;;;;;;8.10;4.75;;;;;;;;;;6246557;23;20035;-79
2023/05/29 11:07:59;;;;;;;8.10;4.85;;;;;;;;;;6230479;23;20430;-80
2023/05/29 11:10:46;;;;;;;8.43;4.82;;;;;;;;;;6246342;23;20000;-79
2023/05/29 11:13:24;;;;;;;10.40;4.82;;;;;;;;;;6219495;23;20046;-80
2023/05/29 11:16:04;;;;;;;8.60;4.85;;;;;;;;;;6219235;23;20075;-81
2023/05/29 11:18:30;;;;;;;9.40;4.75;;;;;;;;;;6246092;23;20015;-81
2023/05/29 11:21:05;;;;;;;13.77;5.05;;;;;;;;;;6246681;23;20414;-81
2023/05/29 11:23:32;;;;;;;9.18;5.25;;;;;;;;;;6246295;23;20008;-81
2023/05/29 11:26:00;;;;;;;13.25;5.22;;;;;;;;;;6219527;23;20001;-82
2023/05/29 11:28:28;;;;;;;11.27;5.22;;;;;;;;;;6219525;23;20320;-81
2023/05/29 11:30:55;;;;;;;10.73;5.45;;;;;;;;;;6245950;23;20426;-85
2023/05/29 11:33:25;;;;;;;13.10;5.35;;;;;;;;;;6246372;23;20075;-83
2023/05/29 11:36:10;;;;;;;12.63;4.90;;;;;;;;;;6246071;23;20067;-84
2023/05/29 11:38:37;;;;;;;12.80;5.50;;;;;;;;;;6245813;23;20008;-82
2023/05/29 11:41:03;;;;;;;9.02;5.40;;;;;;;;;;6246592;23;20346;-83
2023/05/29 11:43:29;;;;;;;9.48;4.90;;;;;;;;;;6246251;23;20060;-82
2023/05/29 11:45:55;;;;;;;7.55;5.25;;;;;;;;;;6244185;22;20046;-85
2023/05/29 11:48:23;;;;;;;8.93;5.00;;;;;;;;;;6242668;23;20469;-81
2023/05/29 11:50:49;;;;;;;8.77;5.55;;;;;;;;;;6242724;23;20026;-82
2023/05/29 11:53:16;;;;;;;12.05;5.45;;;;;;;;;;6244902;23;20489;-82
2023/05/29 11:55:42;;;;;;;17.25;5.45;;;;;;;;;;6218884;23;20021;-81
2023/05/29 11:58:08;;;;;;;9.00;5.10;;;;;;;;;;6245836;23;20430;-82
2023/05/29 12:00:40;;;;;;;9.55;5.75;;;;;;;;;;6245429;23;20428;-81
2023/05/29 12:03:07;;;;;;;11.20;5.95;;;;;;;;;;6245425;23;20007;-80
2023/05/29 12:05:55;;;;;;;8.75;5.43;;;;;;;;;;6219525;23;20505;-80
2023/05/29 12:08:22;;;;;;;15.27;5.43;;;;;;;;;;6245493;23;20414;-81
2023/05/29 12:10:49;;;;;;;11.85;5.18;;;;;;;;;;6246150;23;20004;-80
2023/05/29 12:13:17;;;;;;;15.02;6.45;;;;;;;;;;6245345;23;20368;-81
2023/05/29 12:15:44;;;;;;;15.32;5.45;;;;;;;;;;6245381;23;20330;-82
2023/05/29 12:18:11;;;;;;;7.88;5.38;;;;;;;;;;6245529;23;20015;-81
2023/05/29 12:20:37;;;;;;;8.35;5.72;;;;;;;;;;6245371;23;20007;-80
2023/05/29 12:23:03;;;;;;;11.43;6.45;;;;;;;;;;6245031;23;20016;-82
2023/05/29 12:25:30;;;;;;;8.65;5.03;;;;;;;;;;6244971;23;20071;-85
2023/05/29 12:27:57;;;;;;;11.30;5.47;;;;;;;;;;6245428;23;20007;-84
2023/05/29 12:30:24;;;;;;;14.98;5.70;;;;;;;;;;6245246;23;20000;-82
2023/05/29 12:32:51;;;;;;;9.65;5.28;;;;;;;;;;6245823;23;20008;-83
2023/05/29 12:35:19;;;;;;;15.27;5.78;;;;;;;;;;6246048;23;20000;-82
2023/05/29 12:38:10;;;;;;;13.88;5.90;;;;;;;;;;6244885;23;20013;-84
2023/05/29 12:40:37;;;;;;;20.65;5.30;;;;;;;;;;6245846;23;20006;-80
2023/05/29 12:43:05;;;;;;;10.02;5.53;;;;;;;;;;6245851;23;20444;-89
2023/05/29 12:45:32;;;;;;;8.55;5.53;;;;;;;;;;6244844;22;20082;-85
2023/05/29 12:48:02;;;;;;;11.73;5.53;;;;;;;;;;6219334;23;20004;-84
2023/05/29 12:50:32;;;;;;;15.90;5.75;;;;;;;;;;6234044;23;20006;-84
2023/05/29 12:53:06;;;;;;;10.35;5.13;;;;;;;;;;6270768;23;20000;-83
2023/05/29 12:55:33;;;;;;;10.93;4.85;;;;;;;;;;6254753;23;20024;-81
2023/05/29 12:57:59;;;;;;;9.93;5.55;;;;;;;;;;6245527;23;20066;-86
2023/05/29 13:00:26;;;;;;;11.07;5.00;;;;;;;;;;6244900;23;20011;-82
2023/05/29 13:02:52;;;;;;;10.57;5.13;;;;;;;;;;6243348;23;20335;-86
2023/05/29 13:05:18;;;;;;;11.85;5.60;;;;;;;;;;6241851;23;20075;-83
2023/05/29 13:07:45;;;;;;;9.52;5.47;;;;;;;;;;6216220;23;20004;-82
2023/05/29 13:10:11;;;;;;;13.13;5.50;;;;;;;;;;6219778;23;20005;-86
2023/05/29 13:12:37;;;;;;;9.48;5.32;;;;;;;;;;6220004;23;20410;-81
2023/05/29 13:15:04;;;;;;;25.60;6.30;;;;;;;;;;6247013;23;20001;-83
2023/05/29 13:17:30;;;;;;;8.20;5.30;;;;;;;;;;6247032;23;20008;-79
2023/05/29 13:19:56;;;;;;;10.32;5.70;;;;;;;;;;6247296;23;20461;-83
2023/05/29 13:22:22;;;;;;;9.50;5.82;;;;;;;;;;6247062;23;20004;-82
2023/05/29 13:24:48;;;;;;;9.73;5.32;;;;;;;;;;6247243;23;20072;-80
2023/05/29 13:27:15;;;;;;;11.02;5.55;;;;;;;;;;6247100;23;20426;-81
2023/05/29 13:29:43;;;;;;;8.77;5.05;;;;;;;;;;6247257;23;20008;-83
2023/05/29 13:32:09;;;;;;;7.90;5.25;;;;;;;;;;6246994;23;20011;-80
2023/05/29 13:34:35;;;;;;;12.00;5.75;;;;;;;;;;6247245;23;19996;-81
2023/05/29 13:37:01;;;;;;;8.77;5.63;;;;;;;;;;6219861;23;20004;-83
2023/05/29 13:39:28;;;;;;;17.35;5.93;;;;;;;;;;6246923;23;20422;-81
2023/05/29 13:41:54;;;;;;;12.45;5.70;;;;;;;;;;6247009;23;20007;-84
2023/05/29 13:44:20;;;;;;;15.25;5.38;;;;;;;;;;6219925;23;20004;-83
2023/05/29 13:46:47;;;;;;;12.05;4.85;;;;;;;;;;6246165;22;20070;-80
2023/05/29 13:49:13;;;;;;;6.60;5.18;;;;;;;;;;6219816;23;20010;-83
2023/05/29 13:51:39;;;;;;;14.73;5.30;;;;;;;;;;6247153;23;20011;-79
2023/05/29 13:54:05;;;;;;;7.53;5.53;;;;;;;;;;6245528;23;20319;-82
2023/05/29 13:56:31;;;;;;;10.73;5.97;;;;;;;;;;6246630;23;20000;-81
2023/05/29 13:59:04;;;;;;;12.40;5.70;;;;;;;;;;6246252;23;20435;-81
2023/05/29 14:01:30;;;;;;;10.82;5.78;;;;;;;;;;6246713;23;20003;-80
2023/05/29 14:03:57;;;;;;;11.25;5.55;;;;;;;;;;6219621;23;20008;-82
2023/05/29 14:06:23;;;;;;;8.25;5.22;;;;;;;;;;6246305;23;20444;-80
2023/05/29 14:08:49;;;;;;;9.60;5.40;;;;;;;;;;6246537;23;20004;-82
2023/05/29 14:11:15;;;;;;;8.35;5.60;;;;;;;;;;6246836;23;19996;-81
2023/05/29 14:13:41;;;;;;;10.02;5.47;;;;;;;;;;6219895;23;20008;-82
2023/05/29 14:16:08;;;;;;;11.20;6.22;;;;;;;;;;6246831;23;20457;-81
2023/05/29 14:18:34;;;;;;;7.80;5.60;;;;;;;;;;6219873;23;20016;-83
2023/05/29 14:21:00;;;;;;;12.65;5.78;;;;;;;;;;6246031;23;20075;-82
2023/05/29 14:23:26;;;;;;;9.77;5.13;;;;;;;;;;6246436;23;20419;-82
2023/05/29 14:25:52;;;;;;;7.65;5.53;;;;;;;;;;6246381;23;20000;-81
2023/05/29 14:28:18;;;;;;;8.02;5.35;;;;;;;;;;6246553;23;20008;-81
2023/05/29 14:30:44;;;;;;;11.93;5.50;;;;;;;;;;6246446;23;20369;-81
2023/05/29 14:33:10;;;;;;;12.75;5.28;;;;;;;;;;6245843;23;20004;-79
2023/05/29 14:35:36;;;;;;;11.40;5.47;;;;;;;;;;6246312;23;20000;-82